createdAt,value
2022-12-07T00:00:52.410Z,0.00
2022-12-07T00:01:52.426Z,0.00
2022-12-07T00:02:52.357Z,0.00
2022-12-07T00:03:52.350Z,0.00
2022-12-07T00:04:52.244Z,0.00
2022-12-07T00:05:52.189Z,0.00
2022-12-07T00:06:52.145Z,0.00
2022-12-07T00:07:52.142Z,0.00
2022-12-07T00:08:52.060Z,0.00
2022-12-07T00:09:52.019Z,0.00
2022-12-07T00:10:51.967Z,0.00
2022-12-07T00:11:51.920Z,0.00
2022-12-07T00:12:51.881Z,0.00
2022-12-07T00:13:51.835Z,0.00
2022-12-07T00:14:51.810Z,0.00
2022-12-07T00:15:51.746Z,0.00
2022-12-07T00:16:51.812Z,0.00
2022-12-07T00:17:51.660Z,0.00
2022-12-07T00:18:51.617Z,0.00
2022-12-07T00:19:51.572Z,0.00
2022-12-07T00:20:51.529Z,0.00
2022-12-07T00:21:51.509Z,0.00
2022-12-07T00:22:51.439Z,0.00
2022-12-07T00:23:51.407Z,0.00
2022-12-07T00:24:51.352Z,0.00
2022-12-07T00:25:51.308Z,0.00
2022-12-07T00:26:51.362Z,0.00
2022-12-07T00:27:51.232Z,0.00
2022-12-07T00:28:51.177Z,0.00
2022-12-07T00:29:51.132Z,0.00
2022-12-07T00:30:51.095Z,0.00
2022-12-07T00:31:51.104Z,0.00
2022-12-07T00:32:51.003Z,0.00
2022-12-07T00:33:50.963Z,0.00
2022-12-07T00:34:50.913Z,0.00
2022-12-07T00:35:50.868Z,0.00
2022-12-07T00:36:50.837Z,0.00
2022-12-07T00:37:50.780Z,0.00
2022-12-07T00:38:50.737Z,0.00
2022-12-07T00:39:50.691Z,0.00
2022-12-07T00:40:50.652Z,0.00
2022-12-07T00:41:50.605Z,0.00
2022-12-07T00:42:50.575Z,0.00
2022-12-07T00:43:50.519Z,0.00
2022-12-07T00:44:50.476Z,0.00
2022-12-07T00:45:50.468Z,0.00
2022-12-07T00:46:50.386Z,0.00
2022-12-07T00:47:50.339Z,0.00
2022-12-07T00:48:50.315Z,0.00
2022-12-07T00:49:50.249Z,0.00
2022-12-07T00:50:50.209Z,0.00
2022-12-07T00:51:50.167Z,0.00
2022-12-07T00:52:50.124Z,0.00
2022-12-07T00:53:50.076Z,0.00
2022-12-07T00:54:50.047Z,0.00
2022-12-07T00:55:49.986Z,0.00
2022-12-07T00:56:49.954Z,0.00
2022-12-07T00:57:49.903Z,0.00
2022-12-07T00:58:49.866Z,0.00
2022-12-07T00:59:49.812Z,0.00
2022-12-07T01:00:49.785Z,0.00
2022-12-07T01:01:49.818Z,0.00
2022-12-07T01:02:49.750Z,0.00
2022-12-07T01:03:49.692Z,0.00
2022-12-07T01:04:50.285Z,0.00
2022-12-07T01:05:49.551Z,0.00
2022-12-07T01:06:49.522Z,0.00
2022-12-07T01:07:49.496Z,0.00
2022-12-07T01:08:49.420Z,0.00
2022-12-07T01:09:49.376Z,0.00
2022-12-07T01:10:49.330Z,0.00
2022-12-07T01:11:49.286Z,0.00
2022-12-07T01:12:49.258Z,0.00
2022-12-07T01:13:49.197Z,0.00
2022-12-07T01:14:49.157Z,0.00
2022-12-07T01:15:49.110Z,0.00
2022-12-07T01:16:49.125Z,0.00
2022-12-07T01:17:49.026Z,0.00
2022-12-07T01:18:48.995Z,0.00
2022-12-07T01:19:48.963Z,0.00
2022-12-07T01:20:48.897Z,0.00
2022-12-07T01:21:48.847Z,0.00
2022-12-07T01:22:48.807Z,0.00
2022-12-07T01:23:48.759Z,0.00
2022-12-07T01:24:48.719Z,0.00
2022-12-07T01:25:48.888Z,0.00
2022-12-07T01:26:48.647Z,0.00
2022-12-07T01:27:48.588Z,0.00
2022-12-07T01:28:48.544Z,0.00
2022-12-07T01:29:48.494Z,0.00
2022-12-07T01:30:48.513Z,0.00
2022-12-07T01:31:48.419Z,0.00
2022-12-07T01:32:48.370Z,0.00
2022-12-07T01:33:48.338Z,0.00
2022-12-07T01:34:48.279Z,0.00
2022-12-07T01:35:48.231Z,0.00
2022-12-07T01:36:48.202Z,0.00
2022-12-07T01:37:48.145Z,0.00
2022-12-07T01:38:48.108Z,0.00
2022-12-07T01:39:48.059Z,0.00
2022-12-07T01:40:48.017Z,0.00
2022-12-07T01:41:47.977Z,0.00
2022-12-07T01:42:47.927Z,0.00
2022-12-07T01:43:47.881Z,0.00
2022-12-07T01:44:47.839Z,0.00
2022-12-07T01:45:47.863Z,0.00
2022-12-07T01:46:47.767Z,0.00
2022-12-07T01:47:47.711Z,0.00
2022-12-07T01:48:47.671Z,0.00
2022-12-07T01:49:47.633Z,0.00
2022-12-07T01:50:47.576Z,0.00
2022-12-07T01:51:47.536Z,0.00
2022-12-07T01:52:47.499Z,0.00
2022-12-07T01:53:47.442Z,0.00
2022-12-07T01:54:47.398Z,0.00
2022-12-07T01:55:47.482Z,0.00
2022-12-07T01:56:47.317Z,0.00
2022-12-07T01:57:47.286Z,0.00
2022-12-07T01:58:47.299Z,0.00
2022-12-07T01:59:47.178Z,0.00
2022-12-07T02:00:47.134Z,0.00
2022-12-07T02:01:47.140Z,0.00
2022-12-07T02:02:47.084Z,0.00
2022-12-07T02:03:47.010Z,0.00
2022-12-07T02:04:46.964Z,0.00
2022-12-07T02:05:46.916Z,0.00
2022-12-07T02:06:46.873Z,0.00
2022-12-07T02:07:46.870Z,0.00
2022-12-07T02:08:46.785Z,0.00
2022-12-07T02:09:46.752Z,0.00
2022-12-07T02:10:46.698Z,0.00
2022-12-07T02:11:46.649Z,0.00
2022-12-07T02:12:46.611Z,0.00
2022-12-07T02:13:46.561Z,0.00
2022-12-07T02:14:46.521Z,0.00
2022-12-07T02:15:46.509Z,0.00
2022-12-07T02:16:46.432Z,0.00
2022-12-07T02:17:46.388Z,0.00
2022-12-07T02:18:46.345Z,0.00
2022-12-07T02:19:46.298Z,0.00
2022-12-07T02:20:46.259Z,0.00
2022-12-07T02:21:46.223Z,0.00
2022-12-07T02:22:46.169Z,0.00
2022-12-07T02:23:46.128Z,0.00
2022-12-07T02:24:55.385Z,0.00
2022-12-07T02:25:46.036Z,0.00
2022-12-07T02:26:45.991Z,0.00
2022-12-07T02:27:45.977Z,0.00
2022-12-07T02:28:45.907Z,0.00
2022-12-07T02:29:45.865Z,0.00
2022-12-07T02:30:45.885Z,0.00
2022-12-07T02:31:45.774Z,0.00
2022-12-07T02:32:45.738Z,0.00
2022-12-07T02:33:45.695Z,0.00
2022-12-07T02:34:45.640Z,0.00
2022-12-07T02:35:45.595Z,0.00
2022-12-07T02:36:45.571Z,0.00
2022-12-07T02:37:45.508Z,0.00
2022-12-07T02:38:45.474Z,0.00
2022-12-07T02:39:45.421Z,0.00
2022-12-07T02:40:45.377Z,0.00
2022-12-07T02:41:45.334Z,0.00
2022-12-07T02:42:45.293Z,0.00
2022-12-07T02:43:45.261Z,0.00
2022-12-07T02:44:45.199Z,0.00
2022-12-07T02:45:45.157Z,0.00
2022-12-07T02:46:45.146Z,0.00
2022-12-07T02:47:45.066Z,0.00
2022-12-07T02:48:45.024Z,0.00
2022-12-07T02:49:44.994Z,0.00
2022-12-07T02:50:44.934Z,0.00
2022-12-07T02:51:44.893Z,0.00
2022-12-07T02:52:44.845Z,0.00
2022-12-07T02:53:44.809Z,0.00
2022-12-07T02:54:44.757Z,0.00
2022-12-07T02:55:44.728Z,0.00
2022-12-07T02:56:44.678Z,0.00
2022-12-07T02:57:44.628Z,0.00
2022-12-07T02:58:44.584Z,0.00
2022-12-07T02:59:44.548Z,0.00
2022-12-07T03:00:44.493Z,0.00
2022-12-07T03:01:44.503Z,0.00
2022-12-07T03:02:44.573Z,0.00
2022-12-07T03:03:44.370Z,0.00
2022-12-07T03:04:44.318Z,0.00
2022-12-07T03:05:44.276Z,0.00
2022-12-07T03:06:44.238Z,0.00
2022-12-07T03:07:44.264Z,0.00
2022-12-07T03:08:44.141Z,0.00
2022-12-07T03:09:44.100Z,0.00
2022-12-07T03:10:44.053Z,0.00
2022-12-07T03:11:44.026Z,0.00
2022-12-07T03:12:43.978Z,0.00
2022-12-07T03:13:43.933Z,0.00
2022-12-07T03:14:43.877Z,0.00
2022-12-07T03:15:43.888Z,0.00
2022-12-07T03:16:43.789Z,0.00
2022-12-07T03:17:43.760Z,0.00
2022-12-07T03:18:43.700Z,0.00
2022-12-07T03:19:43.661Z,0.00
2022-12-07T03:20:43.616Z,0.00
2022-12-07T03:21:43.572Z,0.00
2022-12-07T03:22:43.525Z,0.00
2022-12-07T03:23:43.494Z,0.00
2022-12-07T03:24:43.439Z,0.00
2022-12-07T03:25:43.403Z,0.00
2022-12-07T03:26:43.349Z,0.00
2022-12-07T03:27:43.309Z,0.00
2022-12-07T03:28:43.260Z,0.00
2022-12-07T03:29:43.231Z,0.00
2022-12-07T03:30:43.274Z,0.00
2022-12-07T03:31:43.189Z,0.00
2022-12-07T03:32:43.084Z,0.00
2022-12-07T03:33:43.044Z,0.00
2022-12-07T03:34:43.016Z,0.00
2022-12-07T03:35:42.955Z,0.00
2022-12-07T03:36:42.927Z,0.00
2022-12-07T03:37:42.875Z,0.00
2022-12-07T03:38:42.820Z,0.00
2022-12-07T03:39:42.780Z,0.00
2022-12-07T03:40:42.747Z,0.00
2022-12-07T03:41:45.417Z,0.00
2022-12-07T03:42:42.642Z,0.00
2022-12-07T03:43:42.605Z,0.00
2022-12-07T03:44:42.557Z,0.00
2022-12-07T03:45:42.515Z,0.00
2022-12-07T03:46:42.513Z,0.00
2022-12-07T03:47:42.427Z,0.00
2022-12-07T03:48:42.393Z,0.00
2022-12-07T03:49:42.336Z,0.00
2022-12-07T03:50:42.657Z,0.00
2022-12-07T03:51:42.251Z,0.00
2022-12-07T03:52:42.202Z,0.00
2022-12-07T03:53:42.173Z,0.00
2022-12-07T03:54:42.127Z,0.00
2022-12-07T03:55:42.072Z,0.00
2022-12-07T03:56:42.027Z,0.00
2022-12-07T03:57:41.987Z,0.00
2022-12-07T03:58:41.938Z,0.00
2022-12-07T03:59:41.897Z,0.00
2022-12-07T04:00:41.863Z,0.00
2022-12-07T04:01:41.873Z,0.00
2022-12-07T04:02:41.864Z,0.00
2022-12-07T04:03:41.719Z,0.00
2022-12-07T04:04:41.676Z,0.00
2022-12-07T04:05:41.631Z,0.00
2022-12-07T04:06:41.597Z,0.00
2022-12-07T04:07:41.600Z,0.00
2022-12-07T04:08:41.498Z,0.00
2022-12-07T04:09:41.455Z,0.00
2022-12-07T04:10:41.406Z,0.00
2022-12-07T04:11:41.369Z,0.00
2022-12-07T04:12:41.333Z,0.00
2022-12-07T04:13:41.280Z,0.00
2022-12-07T04:14:41.230Z,0.00
2022-12-07T04:15:41.207Z,0.00
2022-12-07T04:16:44.700Z,0.00
2022-12-07T04:17:41.105Z,0.00
2022-12-07T04:18:41.070Z,0.00
2022-12-07T04:19:41.013Z,0.00
2022-12-07T04:20:40.970Z,0.00
2022-12-07T04:21:40.936Z,0.00
2022-12-07T04:22:40.879Z,0.00
2022-12-07T04:23:40.840Z,0.00
2022-12-07T04:24:40.802Z,0.00
2022-12-07T04:25:40.750Z,0.00
2022-12-07T04:26:40.703Z,0.00
2022-12-07T04:27:40.664Z,0.00
2022-12-07T04:28:40.615Z,0.00
2022-12-07T04:29:40.576Z,0.00
2022-12-07T04:30:40.551Z,0.00
2022-12-07T04:31:40.550Z,0.00
2022-12-07T04:32:40.436Z,0.00
2022-12-07T04:33:40.395Z,0.00
2022-12-07T04:34:40.351Z,0.00
2022-12-07T04:35:40.313Z,0.00
2022-12-07T04:36:40.273Z,0.00
2022-12-07T04:37:40.224Z,0.00
2022-12-07T04:38:40.173Z,0.00
2022-12-07T04:39:40.129Z,0.00
2022-12-07T04:40:40.085Z,0.00
2022-12-07T04:41:40.044Z,0.00
2022-12-07T04:42:40.009Z,0.00
2022-12-07T04:43:39.957Z,0.00
2022-12-07T04:44:39.906Z,0.00
2022-12-07T04:45:39.866Z,0.00
2022-12-07T04:46:39.859Z,0.00
2022-12-07T04:47:39.790Z,0.00
2022-12-07T04:48:39.734Z,0.00
2022-12-07T04:49:39.701Z,0.00
2022-12-07T04:50:44.541Z,0.00
2022-12-07T04:51:39.611Z,0.00
2022-12-07T04:52:39.554Z,0.00
2022-12-07T04:53:39.522Z,0.00
2022-12-07T04:54:39.466Z,0.00
2022-12-07T04:55:39.438Z,0.00
2022-12-07T04:56:39.377Z,0.00
2022-12-07T04:57:39.336Z,0.00
2022-12-07T04:58:39.290Z,0.00
2022-12-07T04:59:43.922Z,0.00
2022-12-07T05:00:39.216Z,0.00
2022-12-07T05:01:39.195Z,0.00
2022-12-07T05:02:39.158Z,0.00
2022-12-07T05:03:39.072Z,0.00
2022-12-07T05:04:39.035Z,0.00
2022-12-07T05:05:38.981Z,0.00
2022-12-07T05:06:38.937Z,0.00
2022-12-07T05:07:38.917Z,0.00
2022-12-07T05:08:38.846Z,0.00
2022-12-07T05:09:38.820Z,0.00
2022-12-07T05:10:38.779Z,0.00
2022-12-07T05:11:38.714Z,0.00
2022-12-07T05:12:38.668Z,0.00
2022-12-07T05:13:38.630Z,0.00
2022-12-07T05:14:38.580Z,0.00
2022-12-07T05:15:38.539Z,0.00
2022-12-07T05:16:38.575Z,0.00
2022-12-07T05:17:38.451Z,0.00
2022-12-07T05:18:38.404Z,0.00
2022-12-07T05:19:38.370Z,0.00
2022-12-07T05:20:42.450Z,0.00
2022-12-07T05:21:38.274Z,0.00
2022-12-07T05:22:38.244Z,0.00
2022-12-07T05:23:38.183Z,0.00
2022-12-07T05:24:38.138Z,0.00
2022-12-07T05:25:38.099Z,0.00
2022-12-07T05:26:38.049Z,0.00
2022-12-07T05:27:38.008Z,0.00
2022-12-07T05:28:38.454Z,0.00
2022-12-07T05:29:37.930Z,0.00
2022-12-07T05:30:37.873Z,0.00
2022-12-07T05:31:37.859Z,0.00
2022-12-07T05:32:37.784Z,0.00
2022-12-07T05:33:37.745Z,0.00
2022-12-07T05:34:37.719Z,0.00
2022-12-07T05:35:37.652Z,0.00
2022-12-07T05:36:37.606Z,0.00
2022-12-07T05:37:37.570Z,0.00
2022-12-07T05:38:37.516Z,0.00
2022-12-07T05:39:37.475Z,0.00
2022-12-07T05:40:37.443Z,0.00
2022-12-07T05:41:37.387Z,0.00
2022-12-07T05:42:37.341Z,0.00
2022-12-07T05:43:37.298Z,0.00
2022-12-07T05:44:37.254Z,0.00
2022-12-07T05:45:37.295Z,0.00
2022-12-07T05:46:37.176Z,0.00
2022-12-07T05:47:37.123Z,0.00
2022-12-07T05:48:37.076Z,0.00
2022-12-07T05:49:37.036Z,0.00
2022-12-07T05:50:36.986Z,0.00
2022-12-07T05:51:36.959Z,0.00
2022-12-07T05:52:36.904Z,0.00
2022-12-07T05:53:36.860Z,0.00
2022-12-07T05:54:36.809Z,0.00
2022-12-07T05:55:36.768Z,0.00
2022-12-07T05:56:36.723Z,0.00
2022-12-07T05:57:36.699Z,0.00
2022-12-07T05:58:36.640Z,0.00
2022-12-07T05:59:36.593Z,0.00
2022-12-07T06:00:36.545Z,0.00
2022-12-07T06:01:36.504Z,0.00
2022-12-07T06:02:36.570Z,0.00
2022-12-07T06:03:36.473Z,0.00
2022-12-07T06:04:36.369Z,0.00
2022-12-07T06:05:36.328Z,0.00
2022-12-07T06:06:36.345Z,0.00
2022-12-07T06:07:36.277Z,0.00
2022-12-07T06:08:36.193Z,0.00
2022-12-07T06:09:36.164Z,0.00
2022-12-07T06:10:36.108Z,0.00
2022-12-07T06:11:36.066Z,0.00
2022-12-07T06:12:36.018Z,0.00
2022-12-07T06:13:35.977Z,0.00
2022-12-07T06:14:36.064Z,0.00
2022-12-07T06:15:35.891Z,0.00
2022-12-07T06:16:35.898Z,0.00
2022-12-07T06:17:35.803Z,0.00
2022-12-07T06:18:35.751Z,0.00
2022-12-07T06:19:35.716Z,0.00
2022-12-07T06:20:35.674Z,0.00
2022-12-07T06:21:35.623Z,0.00
2022-12-07T06:22:35.576Z,0.00
2022-12-07T06:23:35.547Z,0.00
2022-12-07T06:24:35.487Z,0.00
2022-12-07T06:25:35.453Z,0.00
2022-12-07T06:26:35.413Z,0.00
2022-12-07T06:27:35.358Z,0.00
2022-12-07T06:28:35.317Z,0.00
2022-12-07T06:29:35.268Z,0.00
2022-12-07T06:30:35.225Z,0.00
2022-12-07T06:31:35.283Z,0.00
2022-12-07T06:32:35.147Z,0.00
2022-12-07T06:33:35.094Z,0.00
2022-12-07T06:34:35.051Z,0.00
2022-12-07T06:35:35.004Z,0.00
2022-12-07T06:36:34.970Z,0.00
2022-12-07T06:37:34.920Z,0.00
2022-12-07T06:38:34.885Z,0.00
2022-12-07T06:39:34.844Z,0.00
2022-12-07T06:40:34.801Z,0.00
2022-12-07T06:41:34.736Z,0.00
2022-12-07T06:42:34.695Z,0.00
2022-12-07T06:43:34.647Z,0.00
2022-12-07T06:44:34.731Z,4.00
2022-12-07T06:45:34.662Z,0.00
2022-12-07T06:46:34.531Z,0.00
2022-12-07T06:47:42.414Z,4.00
2022-12-07T06:48:34.442Z,0.00
2022-12-07T06:49:34.382Z,4.00
2022-12-07T06:50:34.342Z,4.00
2022-12-07T06:51:34.295Z,4.00
2022-12-07T06:52:34.255Z,8.00
2022-12-07T06:53:34.219Z,8.00
2022-12-07T06:54:34.165Z,8.00
2022-12-07T06:55:34.119Z,8.00
2022-12-07T06:56:34.076Z,12.00
2022-12-07T06:57:34.032Z,12.00
2022-12-07T06:58:33.986Z,12.00
2022-12-07T06:59:33.956Z,16.00
2022-12-07T07:00:33.901Z,20.00
2022-12-07T07:01:33.905Z,20.00
2022-12-07T07:02:33.904Z,28.00
2022-12-07T07:03:33.761Z,32.00
2022-12-07T07:04:33.720Z,40.00
2022-12-07T07:05:33.686Z,44.00
2022-12-07T07:06:33.634Z,48.00
2022-12-07T07:07:51.746Z,56.00
2022-12-07T07:08:33.574Z,64.00
2022-12-07T07:09:33.498Z,72.00
2022-12-07T07:10:33.457Z,80.00
2022-12-07T07:11:33.420Z,96.00
2022-12-07T07:12:33.369Z,104.00
2022-12-07T07:13:33.326Z,116.00
2022-12-07T07:14:33.279Z,124.00
2022-12-07T07:15:33.231Z,136.00
2022-12-07T07:16:33.272Z,148.00
2022-12-07T07:17:33.158Z,164.00
2022-12-07T07:18:33.149Z,176.00
2022-12-07T07:19:33.056Z,192.00
2022-12-07T07:20:33.013Z,204.00
2022-12-07T07:21:32.970Z,220.00
2022-12-07T07:22:32.939Z,232.00
2022-12-07T07:23:32.876Z,248.00
2022-12-07T07:24:32.854Z,264.00
2022-12-07T07:25:32.793Z,284.00
2022-12-07T07:26:32.748Z,304.00
2022-12-07T07:27:32.700Z,320.00
2022-12-07T07:28:32.678Z,336.00
2022-12-07T07:29:32.611Z,352.00
2022-12-07T07:30:32.618Z,376.00
2022-12-07T07:31:32.529Z,404.00
2022-12-07T07:32:32.479Z,416.00
2022-12-07T07:33:32.443Z,420.00
2022-12-07T07:34:32.391Z,424.00
2022-12-07T07:35:32.347Z,440.00
2022-12-07T07:36:32.303Z,460.00
2022-12-07T07:37:32.257Z,492.00
2022-12-07T07:38:32.216Z,540.00
2022-12-07T07:39:32.181Z,584.00
2022-12-07T07:40:32.131Z,600.00
2022-12-07T07:41:32.079Z,616.00
2022-12-07T07:42:32.039Z,632.00
2022-12-07T07:43:32.117Z,660.00
2022-12-07T07:44:35.365Z,692.00
2022-12-07T07:45:31.913Z,724.00
2022-12-07T07:46:31.959Z,768.00
2022-12-07T07:47:31.816Z,800.00
2022-12-07T07:48:31.772Z,804.00
2022-12-07T07:49:31.728Z,816.00
2022-12-07T07:50:31.677Z,856.00
2022-12-07T07:51:31.651Z,904.00
2022-12-07T07:52:31.595Z,944.00
2022-12-07T07:53:31.559Z,972.00
2022-12-07T07:54:31.508Z,1004.00
2022-12-07T07:55:31.482Z,1036.00
2022-12-07T07:56:31.423Z,1064.00
2022-12-07T07:57:31.380Z,1088.00
2022-12-07T07:58:31.350Z,1120.00
2022-12-07T07:59:31.290Z,1148.00
2022-12-07T08:00:31.237Z,1192.00
2022-12-07T08:01:31.219Z,1228.00
2022-12-07T08:02:31.169Z,1276.00
2022-12-07T08:03:31.109Z,1324.00
2022-12-07T08:04:31.106Z,1376.00
2022-12-07T08:05:31.013Z,1428.00
2022-12-07T08:06:32.568Z,1484.00
2022-12-07T08:07:30.929Z,1552.00
2022-12-07T08:08:30.988Z,1628.00
2022-12-07T08:09:30.839Z,1720.00
2022-12-07T08:10:30.803Z,1804.00
2022-12-07T08:11:30.748Z,1696.00
2022-12-07T08:12:30.702Z,1768.00
2022-12-07T08:13:31.648Z,1884.00
2022-12-07T08:14:30.616Z,1896.00
2022-12-07T08:15:30.662Z,1820.00
2022-12-07T08:16:30.635Z,1764.00
2022-12-07T08:17:30.492Z,1948.00
2022-12-07T08:18:30.446Z,2204.00
2022-12-07T08:19:30.397Z,2416.00
2022-12-07T08:20:30.349Z,2400.00
2022-12-07T08:21:30.306Z,2316.00
2022-12-07T08:22:30.271Z,2460.00
2022-12-07T08:23:37.645Z,2732.00
2022-12-07T08:24:30.185Z,2952.00
2022-12-07T08:25:39.506Z,3264.00
2022-12-07T08:26:30.083Z,3212.00
2022-12-07T08:27:30.042Z,2880.00
2022-12-07T08:28:30.013Z,2556.00
2022-12-07T08:29:29.965Z,2424.00
2022-12-07T08:30:29.915Z,2424.00
2022-12-07T08:31:29.894Z,2464.00
2022-12-07T08:32:29.835Z,2440.00
2022-12-07T08:33:29.774Z,2516.00
2022-12-07T08:34:29.739Z,2752.00
2022-12-07T08:35:29.688Z,2672.00
2022-12-07T08:36:29.646Z,2396.00
2022-12-07T08:37:29.596Z,2212.00
2022-12-07T08:38:31.936Z,2084.00
2022-12-07T08:39:32.068Z,2020.00
2022-12-07T08:40:29.477Z,2076.00
2022-12-07T08:41:29.426Z,2292.00
2022-12-07T08:42:29.386Z,2360.00
2022-12-07T08:43:29.329Z,2172.00
2022-12-07T08:44:29.294Z,2192.00
2022-12-07T08:45:29.252Z,2336.00
2022-12-07T08:46:29.259Z,2416.00
2022-12-07T08:47:29.237Z,2596.00
2022-12-07T08:48:29.114Z,3020.00
2022-12-07T08:49:29.121Z,3404.00
2022-12-07T08:50:29.027Z,3508.00
2022-12-07T08:51:28.978Z,3380.00
2022-12-07T08:52:28.947Z,3316.00
2022-12-07T08:53:28.901Z,3296.00
2022-12-07T08:54:28.853Z,3380.00
2022-12-07T08:55:28.809Z,3704.00
2022-12-07T08:56:28.757Z,3972.00
2022-12-07T08:57:28.732Z,5792.00
2022-12-07T08:58:28.683Z,4612.00
2022-12-07T08:59:29.552Z,6396.00
2022-12-07T09:00:28.585Z,4128.00
2022-12-07T09:01:28.761Z,5224.00
2022-12-07T09:03:51.397Z,3984.00
2022-12-07T09:04:49.443Z,4536.00
2022-12-07T09:05:28.426Z,3704.00
2022-12-07T09:06:28.481Z,3200.00
2022-12-07T09:07:28.279Z,3016.00
2022-12-07T09:08:28.298Z,2988.00
2022-12-07T09:09:28.188Z,2996.00
2022-12-07T09:10:28.161Z,3124.00
2022-12-07T09:11:28.955Z,3228.00
2022-12-07T09:12:28.086Z,3220.00
2022-12-07T09:13:28.021Z,3336.00
2022-12-07T09:14:27.976Z,3528.00
2022-12-07T09:15:27.929Z,3884.00
2022-12-07T09:16:27.918Z,4592.00
2022-12-07T09:17:27.846Z,9140.00
2022-12-07T09:18:27.816Z,9016.00
2022-12-07T09:19:27.754Z,6668.00
2022-12-07T09:20:28.388Z,9180.00
2022-12-07T09:21:27.673Z,8644.00
2022-12-07T09:22:27.628Z,7308.00
2022-12-07T09:23:27.582Z,8752.00
2022-12-07T09:24:27.553Z,8720.00
2022-12-07T09:25:27.494Z,8264.00
2022-12-07T09:26:27.455Z,7388.00
2022-12-07T09:27:27.420Z,8612.00
2022-12-07T09:28:27.372Z,7832.00
2022-12-07T09:29:27.328Z,5628.00
2022-12-07T09:30:27.309Z,9948.00
2022-12-07T09:31:27.475Z,7760.00
2022-12-07T09:32:27.304Z,6016.00
2022-12-07T09:33:27.162Z,8364.00
2022-12-07T09:34:27.139Z,7184.00
2022-12-07T09:35:27.084Z,6316.00
2022-12-07T09:36:27.049Z,6152.00
2022-12-07T09:37:27.050Z,5660.00
2022-12-07T09:38:26.965Z,5952.00
2022-12-07T09:39:26.944Z,6032.00
2022-12-07T09:40:26.890Z,5820.00
2022-12-07T09:41:26.848Z,4872.00
2022-12-07T09:42:26.891Z,4712.00
2022-12-07T09:43:26.750Z,4764.00
2022-12-07T09:44:26.714Z,4916.00
2022-12-07T09:45:26.670Z,5436.00
2022-12-07T09:46:26.702Z,5708.00
2022-12-07T09:47:26.587Z,5808.00
2022-12-07T09:48:26.550Z,5984.00
2022-12-07T09:49:26.511Z,6332.00
2022-12-07T09:50:26.471Z,6348.00
2022-12-07T09:51:26.429Z,6256.00
2022-12-07T09:52:26.404Z,6256.00
2022-12-07T09:53:26.345Z,6168.00
2022-12-07T09:54:26.302Z,6080.00
2022-12-07T09:55:26.260Z,6000.00
2022-12-07T09:56:26.222Z,6416.00
2022-12-07T09:57:26.183Z,7296.00
2022-12-07T09:58:26.152Z,6332.00
2022-12-07T09:59:26.098Z,6256.00
2022-12-07T10:00:26.056Z,6608.00
2022-12-07T10:01:26.052Z,6552.00
2022-12-07T10:02:25.976Z,6416.00
2022-12-07T10:03:25.931Z,6352.00
2022-12-07T10:04:25.931Z,5900.00
2022-12-07T10:05:25.925Z,5488.00
2022-12-07T10:06:25.951Z,5164.00
2022-12-07T10:07:25.769Z,5100.00
2022-12-07T10:08:25.769Z,5204.00
2022-12-07T10:09:25.694Z,5056.00
2022-12-07T10:10:25.649Z,5124.00
2022-12-07T10:11:25.597Z,4940.00
2022-12-07T10:12:25.569Z,4908.00
2022-12-07T10:13:25.519Z,5084.00
2022-12-07T10:14:44.275Z,5240.00
2022-12-07T10:15:25.552Z,5632.00
2022-12-07T10:16:25.474Z,6024.00
2022-12-07T10:17:25.345Z,6508.00
2022-12-07T10:18:25.310Z,6400.00
2022-12-07T10:19:25.262Z,6444.00
2022-12-07T10:20:25.222Z,6688.00
2022-12-07T10:21:25.206Z,6672.00
2022-12-07T10:22:30.369Z,6036.00
2022-12-07T10:23:25.096Z,5512.00
2022-12-07T10:24:25.061Z,5696.00
2022-12-07T10:25:25.015Z,6108.00
2022-12-07T10:26:24.969Z,6292.00
2022-12-07T10:27:24.927Z,6604.00
2022-12-07T10:28:24.898Z,6124.00
2022-12-07T10:29:24.846Z,5192.00
2022-12-07T10:30:24.805Z,4884.00
2022-12-07T10:31:24.870Z,5168.00
2022-12-07T10:32:24.719Z,5616.00
2022-12-07T10:33:24.681Z,5804.00
2022-12-07T10:34:24.655Z,6004.00
2022-12-07T10:35:24.597Z,6120.00
2022-12-07T10:36:24.558Z,6244.00
2022-12-07T10:37:24.525Z,6112.00
2022-12-07T10:38:24.491Z,5448.00
2022-12-07T10:39:24.432Z,4704.00
2022-12-07T10:40:24.387Z,4416.00
2022-12-07T10:41:24.341Z,4652.00
2022-12-07T10:42:24.323Z,4740.00
2022-12-07T10:43:24.248Z,5176.00
2022-12-07T10:44:24.223Z,5548.00
2022-12-07T10:45:24.259Z,6016.00
2022-12-07T10:46:24.289Z,6208.00
2022-12-07T10:47:24.150Z,5708.00
2022-12-07T10:48:24.058Z,5012.00
2022-12-07T10:49:24.002Z,4908.00
2022-12-07T10:50:23.956Z,5096.00
2022-12-07T10:51:23.939Z,5520.00
2022-12-07T10:52:23.868Z,5844.00
2022-12-07T10:53:23.830Z,6104.00
2022-12-07T10:54:23.784Z,6168.00
2022-12-07T10:55:23.763Z,5296.00
2022-12-07T10:56:23.703Z,5124.00
2022-12-07T10:57:23.683Z,4800.00
2022-12-07T10:58:23.617Z,4416.00
2022-12-07T10:59:23.587Z,4280.00
2022-12-07T11:00:23.541Z,4428.00
2022-12-07T11:01:23.555Z,4392.00
2022-12-07T11:02:23.518Z,4360.00
2022-12-07T11:03:23.414Z,4456.00
2022-12-07T11:04:23.380Z,4620.00
2022-12-07T11:05:23.322Z,4624.00
2022-12-07T11:06:23.276Z,4696.00
2022-12-07T11:07:23.236Z,4752.00
2022-12-07T11:08:23.346Z,4852.00
2022-12-07T11:09:44.990Z,5108.00
2022-12-07T11:10:23.465Z,5496.00
2022-12-07T11:11:23.074Z,5844.00
2022-12-07T11:12:23.028Z,6028.00
2022-12-07T11:13:28.074Z,6096.00
2022-12-07T11:14:22.941Z,6068.00
2022-12-07T11:15:22.902Z,5868.00
2022-12-07T11:16:22.959Z,5816.00
2022-12-07T11:17:22.817Z,5812.00
2022-12-07T11:18:22.782Z,6236.00
2022-12-07T11:19:26.673Z,6416.00
2022-12-07T11:20:22.704Z,6732.00
2022-12-07T11:21:22.658Z,6876.00
2022-12-07T11:22:22.605Z,6760.00
2022-12-07T11:23:22.573Z,6960.00
2022-12-07T11:24:22.538Z,7020.00
2022-12-07T11:25:27.246Z,7092.00
2022-12-07T11:26:22.431Z,7780.00
2022-12-07T11:27:22.391Z,8104.00
2022-12-07T11:28:22.357Z,7624.00
2022-12-07T11:29:22.357Z,7940.00
2022-12-07T11:30:22.280Z,7824.00
2022-12-07T11:31:25.868Z,7792.00
2022-12-07T11:32:22.182Z,8732.00
2022-12-07T11:33:22.146Z,8768.00
2022-12-07T11:34:22.129Z,10020.00
2022-12-07T11:35:22.065Z,11624.00
2022-12-07T11:36:22.035Z,9744.00
2022-12-07T11:37:21.981Z,10664.00
2022-12-07T11:38:24.661Z,9048.00
2022-12-07T11:39:21.898Z,7964.00
2022-12-07T11:40:21.851Z,7124.00
2022-12-07T11:41:21.836Z,7036.00
2022-12-07T11:42:21.782Z,7304.00
2022-12-07T11:43:21.730Z,8120.00
2022-12-07T11:44:27.208Z,8676.00
2022-12-07T11:45:21.645Z,8224.00
2022-12-07T11:46:21.656Z,9564.00
2022-12-07T11:47:21.572Z,9968.00
2022-12-07T11:48:21.523Z,10148.00
2022-12-07T11:49:21.487Z,10036.00
2022-12-07T11:50:22.000Z,9220.00
2022-12-07T11:51:21.405Z,8276.00
2022-12-07T11:52:21.375Z,7600.00
2022-12-07T11:53:21.325Z,7120.00
2022-12-07T11:54:21.279Z,6908.00
2022-12-07T11:55:21.247Z,6880.00
2022-12-07T11:56:21.197Z,6812.00
2022-12-07T11:57:21.156Z,6784.00
2022-12-07T11:58:21.127Z,6848.00
2022-12-07T11:59:21.077Z,6868.00
2022-12-07T12:00:21.056Z,6844.00
2022-12-07T12:01:21.007Z,6588.00
2022-12-07T12:02:20.976Z,6348.00
2022-12-07T12:03:20.958Z,6332.00
2022-12-07T12:04:20.884Z,6160.00
2022-12-07T12:05:20.834Z,5864.00
2022-12-07T12:06:20.805Z,5564.00
2022-12-07T12:09:53.439Z,6124.00
2022-12-07T12:10:20.641Z,6248.00
2022-12-07T12:11:20.600Z,6432.00
2022-12-07T12:14:36.636Z,6768.00
2022-12-07T12:15:20.466Z,6704.00
2022-12-07T12:16:20.442Z,6476.00
2022-12-07T12:17:20.335Z,6240.00
2022-12-07T12:18:20.292Z,6208.00
2022-12-07T12:19:20.271Z,6228.00
2022-12-07T12:20:20.284Z,6180.00
2022-12-07T12:21:20.224Z,6192.00
2022-12-07T12:22:20.127Z,6232.00
2022-12-07T12:23:20.090Z,6288.00
2022-12-07T12:24:20.052Z,6360.00
2022-12-07T12:25:20.005Z,6532.00
2022-12-07T12:26:19.992Z,6572.00
2022-12-07T12:27:19.944Z,6436.00
2022-12-07T12:28:19.878Z,6064.00
2022-12-07T12:29:19.838Z,5600.00
2022-12-07T12:30:19.802Z,5396.00
2022-12-07T12:31:19.775Z,5268.00
2022-12-07T12:32:19.756Z,5156.00
2022-12-07T12:33:19.676Z,5192.00
2022-12-07T12:34:19.628Z,5176.00
2022-12-07T12:35:19.763Z,5124.00
2022-12-07T12:36:19.617Z,5068.00
2022-12-07T12:37:19.527Z,5028.00
2022-12-07T12:38:19.492Z,5032.00
2022-12-07T12:39:20.227Z,4996.00
2022-12-07T12:40:19.408Z,5072.00
2022-12-07T12:41:19.352Z,5324.00
2022-12-07T12:42:19.297Z,5652.00
2022-12-07T12:43:19.295Z,5472.00
2022-12-07T12:44:19.226Z,5348.00
2022-12-07T12:45:19.241Z,5124.00
2022-12-07T12:46:19.192Z,4824.00
2022-12-07T12:47:19.143Z,4648.00
2022-12-07T12:48:19.072Z,4612.00
2022-12-07T12:49:19.071Z,4792.00
2022-12-07T12:50:18.972Z,4980.00